createdAt,value
2018-11-22T00:00:28.671Z,20.27
2018-11-22T00:03:14.891Z,20.40
2018-11-22T00:05:41.611Z,21.45
2018-11-22T00:08:08.324Z,20.08
2018-11-22T00:10:35.064Z,19.85
2018-11-22T00:13:01.723Z,20.27
2018-11-22T00:15:28.341Z,21.02
2018-11-22T00:17:55.784Z,20.82
2018-11-22T00:20:22.460Z,20.02
2018-11-22T00:22:49.094Z,20.15
2018-11-22T00:25:16.078Z,20.08
2018-11-22T00:27:42.708Z,19.75
2018-11-22T00:30:28.969Z,20.55
2018-11-22T00:32:56.352Z,19.32
2018-11-22T00:35:23.038Z,19.45
2018-11-22T00:37:50.109Z,20.37
2018-11-22T00:40:18.378Z,21.40
2018-11-22T00:42:45.729Z,20.97
2018-11-22T00:45:13.795Z,20.65
2018-11-22T00:47:40.626Z,20.92
2018-11-22T00:50:09.236Z,20.90
2018-11-22T00:52:36.008Z,21.42
2018-11-22T00:55:02.668Z,20.70
2018-11-22T00:57:29.401Z,21.10
2018-11-22T00:59:56.056Z,20.77
2018-11-22T01:02:22.697Z,21.25
2018-11-22T01:04:49.382Z,21.48
2018-11-22T01:07:15.979Z,22.20
2018-11-22T01:09:42.660Z,22.25
2018-11-22T01:12:09.298Z,22.07
2018-11-22T01:14:35.930Z,21.50
2018-11-22T01:17:02.552Z,22.70
2018-11-22T01:19:29.254Z,21.55
2018-11-22T01:21:55.891Z,21.50
2018-11-22T01:24:22.568Z,21.70
2018-11-22T01:26:49.224Z,21.65
2018-11-22T01:29:16.244Z,21.45
2018-11-22T01:31:42.894Z,21.77
2018-11-22T01:34:09.599Z,21.97
2018-11-22T01:36:36.294Z,20.65
2018-11-22T01:39:04.904Z,22.17
2018-11-22T01:41:31.570Z,22.45
2018-11-22T01:43:58.191Z,22.67
2018-11-22T01:46:24.827Z,22.25
2018-11-22T01:48:51.461Z,23.80
2018-11-22T01:51:18.133Z,23.57
2018-11-22T01:53:44.783Z,23.40
2018-11-22T01:56:11.504Z,23.47
2018-11-22T01:58:38.127Z,22.95
2018-11-22T02:01:04.883Z,23.98
2018-11-22T02:03:31.517Z,22.67
2018-11-22T02:05:58.209Z,22.90
2018-11-22T02:08:24.762Z,22.42
2018-11-22T02:10:51.419Z,23.05
2018-11-22T02:13:18.049Z,23.12
2018-11-22T02:15:44.706Z,23.05
2018-11-22T02:18:11.428Z,24.85
2018-11-22T02:20:38.366Z,23.18
2018-11-22T02:23:05.039Z,22.50
2018-11-22T02:25:31.751Z,23.50
2018-11-22T02:27:58.388Z,23.80
2018-11-22T02:30:26.355Z,23.70
2018-11-22T02:32:54.435Z,22.55
2018-11-22T02:35:21.385Z,23.92
2018-11-22T02:37:48.112Z,24.60
2018-11-22T02:40:16.526Z,23.70
2018-11-22T02:42:43.868Z,24.00
2018-11-22T02:45:12.074Z,25.43
2018-11-22T02:47:39.206Z,26.12
2018-11-22T02:50:07.905Z,25.65
2018-11-22T02:52:34.562Z,26.33
2018-11-22T02:55:01.171Z,26.68
2018-11-22T02:57:27.818Z,26.73
2018-11-22T02:59:54.473Z,26.55
2018-11-22T03:02:21.187Z,26.75
2018-11-22T03:04:47.877Z,26.52
2018-11-22T03:07:14.553Z,26.80
2018-11-22T03:09:41.135Z,27.10
2018-11-22T03:12:07.798Z,27.13
2018-11-22T03:14:34.458Z,29.37
2018-11-22T03:17:01.079Z,27.77
2018-11-22T03:19:27.705Z,29.57
2018-11-22T03:21:54.592Z,28.73
2018-11-22T03:24:21.295Z,29.25
2018-11-22T03:26:47.935Z,28.67
2018-11-22T03:29:14.615Z,26.70
2018-11-22T03:31:41.216Z,29.07
2018-11-22T03:34:08.256Z,28.38
2018-11-22T03:36:34.908Z,28.30
2018-11-22T03:39:01.554Z,29.25
2018-11-22T03:41:28.179Z,29.52
2018-11-22T03:43:54.825Z,27.87
2018-11-22T03:46:21.487Z,28.00
2018-11-22T03:48:48.180Z,28.10
2018-11-22T03:51:14.870Z,27.52
2018-11-22T03:53:41.505Z,26.40
2018-11-22T03:56:08.420Z,27.02
2018-11-22T03:58:35.397Z,27.27
2018-11-22T04:01:02.021Z,26.75
2018-11-22T04:03:28.658Z,26.85
2018-11-22T04:05:55.333Z,25.20
2018-11-22T04:08:21.994Z,24.98
2018-11-22T04:10:48.628Z,24.77
2018-11-22T04:13:15.236Z,24.77
2018-11-22T04:15:41.929Z,24.37
2018-11-22T04:18:08.546Z,22.90
2018-11-22T04:20:35.263Z,24.35
2018-11-22T04:23:01.920Z,25.15
2018-11-22T04:25:28.683Z,24.55
2018-11-22T04:27:55.549Z,24.92
2018-11-22T04:30:23.722Z,24.67
2018-11-22T04:32:50.751Z,24.50
2018-11-22T04:35:18.314Z,23.90
2018-11-22T04:37:45.016Z,24.55
2018-11-22T04:40:13.435Z,25.17
2018-11-22T04:42:40.016Z,24.75
2018-11-22T04:45:07.025Z,25.62
2018-11-22T04:47:33.796Z,23.77
2018-11-22T04:50:00.474Z,24.32
2018-11-22T04:52:27.144Z,24.90
2018-11-22T04:54:53.786Z,24.82
2018-11-22T04:57:20.468Z,24.55
2018-11-22T04:59:47.139Z,25.68
2018-11-22T05:02:13.760Z,26.33
2018-11-22T05:04:40.374Z,24.82
2018-11-22T05:07:07.020Z,25.40
2018-11-22T05:09:33.635Z,27.07
2018-11-22T05:12:00.312Z,25.23
2018-11-22T05:14:26.943Z,26.05
2018-11-22T05:16:54.386Z,25.80
2018-11-22T05:19:20.992Z,26.25
2018-11-22T05:21:47.605Z,25.75
2018-11-22T05:24:14.259Z,27.60
2018-11-22T05:26:40.925Z,25.88
2018-11-22T05:29:12.403Z,25.95
2018-11-22T05:31:34.240Z,27.32
2018-11-22T05:34:00.948Z,28.47
2018-11-22T05:36:27.588Z,26.60
2018-11-22T05:38:54.240Z,28.07
2018-11-22T05:41:20.915Z,27.10
2018-11-22T05:43:47.583Z,28.25
2018-11-22T05:46:14.192Z,27.93
2018-11-22T05:48:40.858Z,28.55
2018-11-22T05:51:07.461Z,29.02
2018-11-22T05:53:34.091Z,29.40
2018-11-22T05:56:00.677Z,29.67
2018-11-22T05:58:27.305Z,28.87
2018-11-22T06:00:54.018Z,30.88
2018-11-22T06:03:20.659Z,29.87
2018-11-22T06:05:47.256Z,29.40
2018-11-22T06:08:13.917Z,30.57
2018-11-22T06:10:40.588Z,29.95
2018-11-22T06:13:07.343Z,29.63
2018-11-22T06:15:33.990Z,29.92
2018-11-22T06:18:01.184Z,30.48
2018-11-22T06:20:29.024Z,29.50
2018-11-22T06:22:56.242Z,30.32
2018-11-22T06:25:22.940Z,29.05
2018-11-22T06:27:50.141Z,29.07
2018-11-22T06:30:37.190Z,29.42
2018-11-22T06:33:03.957Z,28.40
2018-11-22T06:35:31.514Z,29.37
2018-11-22T06:37:58.222Z,30.43
2018-11-22T06:40:24.856Z,30.23
2018-11-22T06:42:52.454Z,28.90
2018-11-22T06:45:20.539Z,29.20
2018-11-22T06:47:47.248Z,28.20
2018-11-22T06:50:14.863Z,29.02
2018-11-22T06:52:41.503Z,28.60
2018-11-22T06:55:10.800Z,29.00
2018-11-22T06:57:37.469Z,29.50
2018-11-22T07:00:07.113Z,28.65
2018-11-22T07:02:33.737Z,28.75
2018-11-22T07:05:00.370Z,29.65
2018-11-22T07:07:26.982Z,27.75
2018-11-22T07:09:53.922Z,27.98
2018-11-22T07:12:20.573Z,28.70
2018-11-22T07:14:48.421Z,28.65
2018-11-22T07:17:15.115Z,27.85
2018-11-22T07:19:41.731Z,28.73
2018-11-22T07:22:08.399Z,28.10
2018-11-22T07:24:35.026Z,29.42
2018-11-22T07:27:01.722Z,28.80
2018-11-22T07:29:28.381Z,27.80
2018-11-22T07:31:55.099Z,28.92
2018-11-22T07:34:21.763Z,28.70
2018-11-22T07:36:48.464Z,28.75
2018-11-22T07:39:15.163Z,27.62
2018-11-22T07:41:41.801Z,27.65
2018-11-22T07:44:08.445Z,28.83
2018-11-22T07:46:35.066Z,30.17
2018-11-22T07:49:01.687Z,27.82
2018-11-22T07:51:28.383Z,28.15
2018-11-22T07:53:55.005Z,26.73
2018-11-22T07:56:21.676Z,27.80
2018-11-22T07:58:48.409Z,27.95
2018-11-22T08:01:15.065Z,28.42
2018-11-22T08:03:41.796Z,26.95
2018-11-22T08:06:08.437Z,26.75
2018-11-22T08:08:35.057Z,27.80
2018-11-22T08:11:01.731Z,26.30
2018-11-22T08:13:28.353Z,25.90
2018-11-22T08:15:54.990Z,27.25
2018-11-22T08:18:21.621Z,26.70
2018-11-22T08:20:48.255Z,25.17
2018-11-22T08:23:14.911Z,26.35
2018-11-22T08:25:41.526Z,27.62
2018-11-22T08:28:08.216Z,26.95
2018-11-22T08:30:34.899Z,27.10
2018-11-22T08:33:01.564Z,26.52
2018-11-22T08:35:28.253Z,27.42
2018-11-22T08:37:54.896Z,28.15
2018-11-22T08:40:23.027Z,26.75
2018-11-22T08:42:55.118Z,27.87
2018-11-22T08:45:17.843Z,25.95
2018-11-22T08:47:44.930Z,26.70
2018-11-22T08:50:31.280Z,24.75
2018-11-22T08:53:00.228Z,25.30
2018-11-22T08:55:46.483Z,27.17
2018-11-22T08:58:13.142Z,26.68
2018-11-22T09:00:40.807Z,25.10
2018-11-22T09:03:07.673Z,25.30
2018-11-22T09:05:35.708Z,25.88
2018-11-22T09:08:02.683Z,25.43
2018-11-22T09:10:29.714Z,25.48
2018-11-22T09:12:57.209Z,26.57
2018-11-22T09:15:31.220Z,25.35
2018-11-22T09:17:51.732Z,25.75
2018-11-22T09:20:19.876Z,25.25
2018-11-22T09:22:46.532Z,25.65
2018-11-22T09:25:14.004Z,26.35
2018-11-22T09:27:41.211Z,26.93
2018-11-22T09:30:13.409Z,27.15
2018-11-22T09:32:40.359Z,27.22
2018-11-22T09:35:07.373Z,26.60
2018-11-22T09:37:34.058Z,26.00
2018-11-22T09:40:00.672Z,26.10
2018-11-22T09:42:27.761Z,25.92
2018-11-22T09:44:54.333Z,26.97
2018-11-22T09:47:21.137Z,27.40
2018-11-22T09:49:47.855Z,27.20
2018-11-22T09:52:14.509Z,28.75
2018-11-22T09:54:41.197Z,28.25
2018-11-22T09:57:07.791Z,28.10
2018-11-22T09:59:34.489Z,28.45
2018-11-22T10:02:01.158Z,26.10
2018-11-22T10:04:27.822Z,28.15
2018-11-22T10:06:54.458Z,28.42
2018-11-22T10:09:21.233Z,28.73
2018-11-22T10:11:47.748Z,27.90
2018-11-22T10:14:14.491Z,29.05
2018-11-22T10:16:41.134Z,27.65
2018-11-22T10:19:07.769Z,29.15
2018-11-22T10:21:34.474Z,29.55
2018-11-22T10:24:01.114Z,29.23
2018-11-22T10:26:27.760Z,30.88
2018-11-22T10:28:54.419Z,29.05
2018-11-22T10:31:21.063Z,29.52
2018-11-22T10:33:47.753Z,30.80
2018-11-22T10:36:14.412Z,29.72
2018-11-22T10:38:41.032Z,29.25
2018-11-22T10:41:07.713Z,29.98
2018-11-22T10:43:34.388Z,29.90
2018-11-22T10:46:01.041Z,29.18
2018-11-22T10:48:27.667Z,30.48
2018-11-22T10:50:54.296Z,29.45
2018-11-22T10:53:20.892Z,29.18
2018-11-22T10:55:47.573Z,29.50
2018-11-22T10:58:14.201Z,30.75
2018-11-22T11:01:00.490Z,30.10
2018-11-22T11:03:46.699Z,28.57
2018-11-22T11:06:33.015Z,29.37
2018-11-22T11:09:00.247Z,28.42
2018-11-22T11:11:27.187Z,29.37
2018-11-22T11:13:54.008Z,27.70
2018-11-22T11:16:20.675Z,28.55
2018-11-22T11:18:47.350Z,28.55
2018-11-22T11:21:14.072Z,28.57
2018-11-22T11:23:40.722Z,27.15
2018-11-22T11:26:07.417Z,26.20
2018-11-22T11:28:34.092Z,26.12
2018-11-22T11:31:00.756Z,25.30
2018-11-22T11:33:27.549Z,26.42
2018-11-22T11:35:54.179Z,25.55
2018-11-22T11:38:20.885Z,25.60
2018-11-22T11:40:47.502Z,26.62
2018-11-22T11:43:14.136Z,25.62
2018-11-22T11:46:00.398Z,24.82
2018-11-22T11:48:27.065Z,26.87
2018-11-22T11:50:53.715Z,26.40
2018-11-22T11:53:25.127Z,26.75
2018-11-22T11:55:47.052Z,26.42
2018-11-22T11:58:13.767Z,26.35
2018-11-22T12:00:41.873Z,27.40
2018-11-22T12:03:08.564Z,28.17
2018-11-22T12:05:35.236Z,26.15
2018-11-22T12:08:01.959Z,26.23
2018-11-22T12:10:28.640Z,26.97
2018-11-22T12:12:55.282Z,28.40
2018-11-22T12:15:22.972Z,28.57
2018-11-22T12:17:49.653Z,28.42
2018-11-22T12:20:16.872Z,28.30
2018-11-22T12:22:44.810Z,28.07
2018-11-22T12:25:12.836Z,27.75
2018-11-22T12:27:39.985Z,27.98
2018-11-22T12:30:11.037Z,28.85
2018-11-22T12:32:57.290Z,28.95
2018-11-22T12:35:43.561Z,28.80
2018-11-22T12:38:29.809Z,27.70
2018-11-22T12:40:56.480Z,28.17
2018-11-22T12:43:23.499Z,27.32
2018-11-22T12:45:50.133Z,27.35
2018-11-22T12:48:16.791Z,30.62
2018-11-22T12:50:43.491Z,29.60
2018-11-22T12:53:10.125Z,27.67
2018-11-22T12:55:36.851Z,30.85
2018-11-22T12:58:03.469Z,28.62
2018-11-22T13:00:30.107Z,28.02
2018-11-22T13:02:56.734Z,26.87
2018-11-22T13:05:23.391Z,27.95
2018-11-22T13:07:50.039Z,27.73
2018-11-22T13:10:17.785Z,27.62
2018-11-22T13:12:45.671Z,27.58
2018-11-22T13:15:16.695Z,29.20
2018-11-22T13:17:43.370Z,29.10
2018-11-22T13:20:12.403Z,29.45
2018-11-22T13:22:38.100Z,28.67
2018-11-22T13:25:06.413Z,29.87
2018-11-22T13:27:33.111Z,29.60
2018-11-22T13:29:59.720Z,28.80
2018-11-22T13:32:26.357Z,29.60
2018-11-22T13:34:53.025Z,28.87
2018-11-22T13:37:19.763Z,30.00
2018-11-22T13:39:46.461Z,28.05
2018-11-22T13:42:13.173Z,29.87
2018-11-22T13:44:39.816Z,29.23
2018-11-22T13:47:06.450Z,28.67
2018-11-22T13:49:33.040Z,28.62
2018-11-22T13:51:59.674Z,29.20
2018-11-22T13:54:26.330Z,28.62
2018-11-22T13:56:53.086Z,28.90
2018-11-22T13:59:19.734Z,28.83
2018-11-22T14:01:46.344Z,29.60
2018-11-22T14:04:13.060Z,30.70
2018-11-22T14:06:39.694Z,28.95
2018-11-22T14:09:07.916Z,28.20
2018-11-22T14:11:34.625Z,29.45
2018-11-22T14:14:01.330Z,28.35
2018-11-22T14:16:28.045Z,29.77
2018-11-22T14:18:54.755Z,29.27
2018-11-22T14:21:21.397Z,29.07
2018-11-22T14:23:48.118Z,27.87
2018-11-22T14:26:14.698Z,28.83
2018-11-22T14:28:41.419Z,28.00
2018-11-22T14:31:08.142Z,29.30
2018-11-22T14:33:34.902Z,28.67
2018-11-22T14:36:01.621Z,29.63
2018-11-22T14:38:28.313Z,29.72
2018-11-22T14:40:54.940Z,31.25
2018-11-22T14:43:21.674Z,28.35
2018-11-22T14:45:48.302Z,29.23
2018-11-22T14:48:14.952Z,31.23
2018-11-22T14:51:05.705Z,30.35
2018-11-22T14:53:32.385Z,29.02
2018-11-22T14:56:18.655Z,30.02
2018-11-22T14:58:45.333Z,29.35
2018-11-22T15:01:12.009Z,31.07
2018-11-22T15:03:38.727Z,30.17
2018-11-22T15:06:05.384Z,30.65
2018-11-22T15:08:32.076Z,30.80
2018-11-22T15:10:58.729Z,30.85
2018-11-22T15:13:25.383Z,30.15
2018-11-22T15:15:52.160Z,30.00
2018-11-22T15:18:18.797Z,29.50
2018-11-22T15:20:45.432Z,30.12
2018-11-22T15:23:12.059Z,30.68
2018-11-22T15:25:38.744Z,30.27
2018-11-22T15:28:05.406Z,29.60
2018-11-22T15:30:32.061Z,29.92
2018-11-22T15:32:59.076Z,31.02
2018-11-22T15:35:27.159Z,31.82
2018-11-22T15:37:54.136Z,33.90
2018-11-22T15:40:22.052Z,30.82
2018-11-22T15:42:50.183Z,37.93
2018-11-22T15:45:18.150Z,32.88
2018-11-22T15:47:45.082Z,30.20
2018-11-22T15:50:13.114Z,34.92
2018-11-22T15:52:39.982Z,33.18
2018-11-22T15:55:20.780Z,30.82
2018-11-22T15:57:42.266Z,30.97
2018-11-22T16:00:29.988Z,30.85
2018-11-22T16:02:57.163Z,33.90
2018-11-22T16:05:24.709Z,34.45
2018-11-22T16:07:51.359Z,32.45
2018-11-22T16:10:26.347Z,32.42
2018-11-22T16:12:47.732Z,32.23
2018-11-22T16:15:54.178Z,33.75
2018-11-22T16:18:20.889Z,30.82
2018-11-22T16:20:47.712Z,32.25
2018-11-22T16:26:00.803Z,31.15
2018-11-22T16:28:27.471Z,33.65
2018-11-22T16:30:54.197Z,31.87
2018-11-22T16:33:20.861Z,31.27
2018-11-22T16:35:47.562Z,32.33
2018-11-22T16:38:14.170Z,32.70
2018-11-22T16:40:40.779Z,32.38
2018-11-22T16:43:07.384Z,33.90
2018-11-22T16:45:35.251Z,32.40
2018-11-22T16:48:03.623Z,33.73
2018-11-22T16:50:31.287Z,33.50
2018-11-22T16:52:57.898Z,33.50
2018-11-22T16:55:25.316Z,33.88
2018-11-22T16:57:52.831Z,32.48
2018-11-22T17:00:40.119Z,32.88
2018-11-22T17:03:08.590Z,32.40
2018-11-22T17:05:35.693Z,33.58
2018-11-22T17:08:03.074Z,30.90
2018-11-22T17:10:30.570Z,28.45
2018-11-22T17:12:58.406Z,29.75
2018-11-22T17:15:26.502Z,28.07
2018-11-22T17:17:53.795Z,29.92
2018-11-22T17:20:21.280Z,28.25
2018-11-22T17:22:49.336Z,27.70
2018-11-22T17:25:17.218Z,27.37
2018-11-22T17:27:45.717Z,27.98
2018-11-22T17:30:33.448Z,27.58
2018-11-22T17:33:00.656Z,27.93
2018-11-22T17:35:28.662Z,29.40
2018-11-22T17:37:59.464Z,29.60
2018-11-22T17:40:36.892Z,29.90
2018-11-22T17:43:03.807Z,30.05
2018-11-22T17:45:32.235Z,30.15
2018-11-22T17:47:58.907Z,29.75
2018-11-22T17:50:46.364Z,33.35
2018-11-22T17:53:13.344Z,35.05
2018-11-22T17:55:40.329Z,34.40
2018-11-22T17:58:08.723Z,34.73
2018-11-22T18:00:36.912Z,35.58
2018-11-22T18:03:04.813Z,33.30
2018-11-22T18:05:32.656Z,33.20
2018-11-22T18:08:00.227Z,33.53
2018-11-22T18:10:32.164Z,33.55
2018-11-22T18:12:59.323Z,31.77
2018-11-22T18:15:26.558Z,32.73
2018-11-22T18:17:54.054Z,31.42
2018-11-22T18:20:22.742Z,30.68
2018-11-22T18:22:51.641Z,31.55
2018-11-22T18:25:19.683Z,31.73
2018-11-22T18:27:46.350Z,32.10
2018-11-22T18:30:33.991Z,31.57
2018-11-22T18:33:02.067Z,31.85
2018-11-22T18:35:30.633Z,30.08
2018-11-22T18:37:57.156Z,27.95
2018-11-22T18:40:25.153Z,28.77
2018-11-22T18:42:53.106Z,28.67
2018-11-22T18:45:39.378Z,29.27
2018-11-22T18:48:07.243Z,30.68
2018-11-22T18:50:34.559Z,30.52
2018-11-22T18:53:01.227Z,31.60
2018-11-22T18:55:27.854Z,30.62
2018-11-22T18:57:54.469Z,31.55
2018-11-22T19:00:41.229Z,30.05
2018-11-22T19:03:09.450Z,31.77
2018-11-22T19:05:36.130Z,31.70
2018-11-22T19:08:02.744Z,29.60
2018-11-22T19:10:48.937Z,30.35
2018-11-22T19:13:15.622Z,29.20
2018-11-22T19:16:01.831Z,30.37
2018-11-22T19:18:28.446Z,29.57
2018-11-22T19:20:55.047Z,32.50
2018-11-22T19:23:21.666Z,31.40
2018-11-22T19:25:48.262Z,33.55
2018-11-22T19:28:14.863Z,31.73
2018-11-22T19:30:42.885Z,31.82
2018-11-22T19:33:11.033Z,30.77
2018-11-22T19:35:57.241Z,31.40
2018-11-22T19:38:23.870Z,31.70
2018-11-22T19:40:50.407Z,32.25
2018-11-22T19:43:17.015Z,31.87
2018-11-22T19:45:45.206Z,30.80
2018-11-22T19:48:11.815Z,28.80
2018-11-22T19:50:38.399Z,29.23
2018-11-22T19:53:06.673Z,30.52
2018-11-22T19:55:41.374Z,28.77
2018-11-22T19:58:09.366Z,29.40
2018-11-22T20:00:36.043Z,29.15
2018-11-22T20:03:03.796Z,29.23
2018-11-22T20:05:31.639Z,30.45
2018-11-22T20:07:59.620Z,29.70
2018-11-22T20:10:27.789Z,29.60
2018-11-22T20:12:54.375Z,30.70
2018-11-22T20:15:20.973Z,28.73
2018-11-22T20:17:48.157Z,29.42
2018-11-22T20:20:15.767Z,30.55
2018-11-22T20:22:42.414Z,32.10
2018-11-22T20:25:09.579Z,31.27
2018-11-22T20:27:36.510Z,30.95
2018-11-22T20:30:05.819Z,33.05
2018-11-22T20:32:38.698Z,30.15
2018-11-22T20:34:59.038Z,33.33
2018-11-22T20:37:25.620Z,30.40
2018-11-22T20:39:52.254Z,32.95
2018-11-22T20:42:18.846Z,32.58
2018-11-22T20:44:45.460Z,31.70
2018-11-22T20:47:12.046Z,31.12
2018-11-22T20:49:38.680Z,30.72
2018-11-22T20:52:05.272Z,30.82
2018-11-22T20:54:31.862Z,31.65
2018-11-22T20:56:58.454Z,32.42
2018-11-22T20:59:25.081Z,32.42
2018-11-22T21:01:51.871Z,30.75
2018-11-22T21:04:18.301Z,32.23
2018-11-22T21:06:44.891Z,31.07
2018-11-22T21:09:11.490Z,31.17
2018-11-22T21:11:43.384Z,33.00
2018-11-22T21:14:05.951Z,32.63
2018-11-22T21:16:32.557Z,39.90
2018-11-22T21:18:59.136Z,39.00
2018-11-22T21:21:25.752Z,33.13
2018-11-22T21:23:52.355Z,33.18
2018-11-22T21:26:18.959Z,31.52
2018-11-22T21:28:45.546Z,33.55
2018-11-22T21:31:12.163Z,32.48
2018-11-22T21:33:38.750Z,35.10
2018-11-22T21:36:05.367Z,33.25
2018-11-22T21:38:31.943Z,32.63
2018-11-22T21:40:58.543Z,33.53
2018-11-22T21:43:25.132Z,33.60
2018-11-22T21:45:51.730Z,34.03
2018-11-22T21:48:18.335Z,35.80
2018-11-22T21:50:44.947Z,33.85
2018-11-22T21:53:11.547Z,34.70
2018-11-22T21:55:38.194Z,34.25
2018-11-22T21:58:04.890Z,36.25
2018-11-22T22:00:34.281Z,36.90
2018-11-22T22:03:02.430Z,34.98
2018-11-22T22:05:29.012Z,34.45
2018-11-22T22:07:55.624Z,34.43
2018-11-22T22:10:22.218Z,34.58
2018-11-22T22:12:48.831Z,34.60
2018-11-22T22:15:16.852Z,37.80
2018-11-22T22:17:44.226Z,36.48
2018-11-22T22:20:13.099Z,35.70
2018-11-22T22:22:40.279Z,36.03
2018-11-22T22:25:08.516Z,38.10
2018-11-22T22:27:35.398Z,35.85
2018-11-22T22:30:01.995Z,36.65
2018-11-22T22:32:28.605Z,37.55
2018-11-22T22:34:55.194Z,35.73
2018-11-22T22:37:21.816Z,37.98
2018-11-22T22:39:48.415Z,37.28
2018-11-22T22:42:15.014Z,36.73
2018-11-22T22:44:41.606Z,37.48
2018-11-22T22:47:08.210Z,36.77
2018-11-22T22:49:34.823Z,37.67
2018-11-22T22:52:01.432Z,38.25
2018-11-22T22:54:28.054Z,37.88
2018-11-22T22:56:54.652Z,39.25
2018-11-22T22:59:21.250Z,38.28
2018-11-22T23:01:47.866Z,39.78
2018-11-22T23:04:14.464Z,38.95
2018-11-22T23:06:41.071Z,38.48
2018-11-22T23:09:09.274Z,39.73
2018-11-22T23:11:35.907Z,38.40
2018-11-22T23:14:02.489Z,40.15
2018-11-22T23:16:29.140Z,39.70
2018-11-22T23:18:55.740Z,39.08
2018-11-22T23:21:22.338Z,39.88
2018-11-22T23:23:48.918Z,40.25
2018-11-22T23:26:16.222Z,40.83
2018-11-22T23:28:43.964Z,41.68
2018-11-22T23:31:11.717Z,39.53
2018-11-22T23:33:38.539Z,41.83
2018-11-22T23:36:05.135Z,39.98
2018-11-22T23:38:33.148Z,41.83
2018-11-22T23:41:01.026Z,43.05
2018-11-22T23:43:28.809Z,43.70
2018-11-22T23:45:55.366Z,41.28
2018-11-22T23:48:21.965Z,42.43
2018-11-22T23:50:48.967Z,42.53
2018-11-22T23:53:15.552Z,43.00
2018-11-22T23:55:42.173Z,41.37
2018-11-22T23:58:08.776Z,42.80
